MNZ weather

Manassas Regional Airport/Harry P. Davis Field
Manassas, Virginia, United States

Public forecast

Using degrees Fahrenheit for public forecast. Weather courtesy of forecast.io.

Current aviation weather report (METAR) for Manassas Regional Airport/Harry P. Davis Field

Retrieved 2019/12/12 17:56 UTC (42 minutes ago):

KHEF 121756Z VRB03KT 10SM CLR 03/M07 A3069 RMK AO2 SLP401 T00281072 10033 21061 58020

Closest aviation forecast (TAF) to Manassas Regional Airport/Harry P. Davis Field

Closest forecast is Washington Dulles International Airport, 13.7 nm (25.3 km) NNE. Retrieved 2019/12/12 18:27 UTC (11 minutes ago):

TAF KIAD 121725Z 1218/1324 11004KT P6SM FEW200 FM130500 13003KT P6SM BKN060 FM131200 VRB03KT P6SM BKN020 FM131500 VRB03KT 6SM -RA OVC010 FM131800 VRB03KT 6SM -RA OVC008